Time;durP1;ratioP1;P1;durP2;ratioP2;P2;SDS_P1;SDS_P2;PMS_P1;PMS_P2;Temp;Humidity;BMP_temperature;BMP_pressure;BME280_temperature;BME280_humidity;BME280_pressure;Samples;Min_cycle;Max_cycle;Signal;HPM_P1;HPM_P2
2021/12/25 00:01:24;;;;;;;;;;;1.40;99.90;;;;;;5052734;28;19905;-71
2021/12/25 00:03:51;;;;;;;;;;;1.50;99.90;;;;;;5070483;28;20002;-71
2021/12/25 00:06:16;;;;;;;;;;;1.50;99.90;;;;;;5071043;28;20441;-72
2021/12/25 00:08:42;;;;;;;;;;;1.60;99.90;;;;;;5052053;28;19965;-71
2021/12/25 00:11:08;;;;;;;;;;;1.60;99.90;;;;;;5070511;28;19998;-71
2021/12/25 00:13:34;;;;;;;;;;;1.70;99.90;;;;;;5070525;28;19991;-72
2021/12/25 00:16:00;;;;;;;;;;;1.80;99.90;;;;;;5052453;28;20494;-71
2021/12/25 00:18:25;;;;;;;;;;;1.80;99.90;;;;;;5070292;28;20112;-72
2021/12/25 00:20:51;;;;;;;;;;;1.90;99.90;;;;;;5052394;28;20129;-72
2021/12/25 00:23:17;;;;;;;;;;;1.90;99.90;;;;;;5070543;28;19912;-71
2021/12/25 00:25:48;;;;;;;;;;;1.90;99.90;;;;;;5071111;28;20407;-71
2021/12/25 00:31:25;;;;;;;;;;;1.90;99.90;;;;;;5070568;28;20253;-72
2021/12/25 00:33:57;;;;;;;;;;;2.00;99.90;;;;;;5061377;28;19913;-72
2021/12/25 00:36:23;;;;;;;;;;;2.00;99.90;;;;;;5032884;28;20356;-71
2021/12/25 00:38:49;;;;;;;;;;;2.00;99.90;;;;;;5058658;28;19919;-71
2021/12/25 00:41:16;;;;;;;;;;;2.00;99.90;;;;;;5070088;28;19920;-71
2021/12/25 00:43:42;;;;;;;;;;;2.00;99.90;;;;;;5070492;28;19908;-72
2021/12/25 00:46:08;;;;;;;;;;;2.10;99.90;;;;;;5069496;28;19909;-72
2021/12/25 00:48:33;;;;;;;;;;;2.10;99.90;;;;;;5051955;28;19915;-71
2021/12/25 00:51:00;;;;;;;;;;;2.10;99.90;;;;;;5070026;28;19999;-71
2021/12/25 00:53:25;;;;;;;;;;;2.10;99.90;;;;;;5064764;28;19904;-73
2021/12/25 00:55:51;;;;;;;;;;;2.20;99.90;;;;;;5032313;28;19923;-72
2021/12/25 00:58:16;;;;;;;;;;;2.10;99.90;;;;;;5054633;28;19904;-72
2021/12/25 01:00:43;;;;;;;;;;;2.20;99.90;;;;;;5070589;28;19912;-72
2021/12/25 01:03:08;;;;;;;;;;;2.20;99.90;;;;;;5069899;28;20174;-71
2021/12/25 01:05:34;;;;;;;;;;;2.20;99.90;;;;;;5052236;28;19912;-70
2021/12/25 01:08:00;;;;;;;;;;;2.30;99.90;;;;;;5070057;28;20011;-71
2021/12/25 01:10:25;;;;;;;;;;;2.30;99.90;;;;;;5073384;28;19955;-71
2021/12/25 01:21:34;;;;;;;;;;;2.50;99.90;;;;;;5073799;28;19924;-72
2021/12/25 01:49:35;;;;;;;;;;;3.10;99.90;;;;;;5073035;28;19993;-71
2021/12/25 01:52:01;;;;;;;;;;;3.10;99.90;;;;;;5073267;28;19979;-71
2021/12/25 01:54:26;;;;;;;;;;;3.20;99.90;;;;;;5072920;28;19911;-72
2021/12/25 01:56:52;;;;;;;;;;;2.90;99.90;;;;;;5055208;28;19919;-72
2021/12/25 01:59:18;;;;;;;;;;;3.30;99.90;;;;;;5072486;28;20421;-71
2021/12/25 02:01:43;;;;;;;;;;;3.30;99.90;;;;;;5073349;28;19967;-72
2021/12/25 02:04:09;;;;;;;;;;;3.30;99.90;;;;;;5054031;28;19914;-71
2021/12/25 02:06:35;;;;;;;;;;;3.40;99.90;;;;;;5054858;28;20007;-71
2021/12/25 02:09:01;;;;;;;;;;;3.40;99.90;;;;;;5043822;28;20349;-72
2021/12/25 02:11:27;;;;;;;;;;;3.40;99.90;;;;;;5052711;28;20344;-72
2021/12/25 02:13:52;;;;;;;;;;;3.50;99.90;;;;;;5061401;28;19957;-71
2021/12/25 02:16:21;;;;;;;;;;;3.50;99.90;;;;;;5054841;28;19912;-72
2021/12/25 02:22:01;;;;;;;;;;;3.50;99.90;;;;;;5072365;28;20045;-72
2021/12/25 02:24:16;;;;;;;;;;;3.50;99.90;;;;;;5055375;28;19905;-72
2021/12/25 02:26:43;;;;;;;;;;;3.60;99.90;;;;;;5034879;28;20403;-72
2021/12/25 02:29:09;;;;;;;;;;;3.60;99.90;;;;;;5063196;28;20253;-72
2021/12/25 02:31:34;;;;;;;;;;;3.60;99.90;;;;;;5072386;28;19938;-72
2021/12/25 02:34:00;;;;;;;;;;;3.60;99.90;;;;;;5071723;28;20003;-71
2021/12/25 02:36:26;;;;;;;;;;;3.60;99.90;;;;;;5072496;28;19924;-71
2021/12/25 02:38:51;;;;;;;;;;;3.60;99.90;;;;;;5062639;28;19905;-71
2021/12/25 02:41:17;;;;;;;;;;;3.70;99.90;;;;;;5051936;28;20062;-72
2021/12/25 02:43:45;;;;;;;;;;;3.80;99.90;;;;;;5059633;28;20295;-72
2021/12/25 02:46:11;;;;;;;;;;;3.80;99.90;;;;;;5054071;28;20378;-71
2021/12/25 02:48:37;;;;;;;;;;;3.90;99.90;;;;;;5046727;28;19909;-71
2021/12/25 02:51:04;;;;;;;;;;;3.90;99.90;;;;;;5051287;28;19958;-72
2021/12/25 02:53:30;;;;;;;;;;;3.80;99.90;;;;;;5057541;28;19908;-71
2021/12/25 02:55:55;;;;;;;;;;;3.90;99.90;;;;;;5053786;28;19919;-71
2021/12/25 02:58:21;;;;;;;;;;;3.90;99.90;;;;;;5053551;28;19912;-73
2021/12/25 03:00:47;;;;;;;;;;;3.90;99.90;;;;;;5053689;28;19929;-73
2021/12/25 03:03:12;;;;;;;;;;;3.90;99.90;;;;;;5049850;28;20353;-72
2021/12/25 03:05:38;;;;;;;;;;;3.90;99.90;;;;;;5051765;28;19953;-73
2021/12/25 03:08:05;;;;;;;;;;;3.90;99.90;;;;;;5035978;28;19912;-72
2021/12/25 03:10:33;;;;;;;;;;;4.00;99.90;;;;;;5071126;28;19904;-72
2021/12/25 03:15:46;;;;;;;;;;;3.90;99.90;;;;;;5071655;28;19910;-73
2021/12/25 03:18:12;;;;;;;;;;;3.90;99.90;;;;;;5071288;28;20412;-72
2021/12/25 03:20:40;;;;;;;;;;;3.90;99.90;;;;;;5071205;28;19999;-72
2021/12/25 03:23:06;;;;;;;;;;;3.90;99.90;;;;;;5053283;28;19904;-72
2021/12/25 03:25:32;;;;;;;;;;;3.90;99.90;;;;;;5071115;28;19905;-72
2021/12/25 03:27:57;;;;;;;;;;;3.90;99.90;;;;;;5071440;28;19914;-72
2021/12/25 03:30:24;;;;;;;;;;;3.90;99.90;;;;;;5070889;28;19905;-72
2021/12/25 03:32:50;;;;;;;;;;;3.90;99.90;;;;;;5071651;28;19995;-72
2021/12/25 03:35:16;;;;;;;;;;;3.90;99.90;;;;;;5052901;28;19996;-73
2021/12/25 03:37:41;;;;;;;;;;;3.90;99.90;;;;;;5070263;28;19979;-72
2021/12/25 03:40:08;;;;;;;;;;;3.80;99.90;;;;;;5069684;28;19926;-71
2021/12/25 03:42:33;;;;;;;;;;;3.80;99.90;;;;;;5053560;28;20272;-72
2021/12/25 03:44:59;;;;;;;;;;;3.60;99.90;;;;;;5070539;28;19912;-72
2021/12/25 03:47:30;;;;;;;;;;;3.60;99.90;;;;;;5071562;28;19924;-73
2021/12/25 03:58:16;;;;;;;;;;;3.30;99.90;;;;;;5054110;28;20000;-72
2021/12/25 04:00:44;;;;;;;;;;;3.20;99.90;;;;;;5052697;28;20371;-72
2021/12/25 04:03:18;;;;;;;;;;;3.10;99.90;;;;;;5052739;28;19939;-71
2021/12/25 04:05:46;;;;;;;;;;;3.10;99.90;;;;;;5052471;28;19908;-71
2021/12/25 04:08:14;;;;;;;;;;;3.00;99.90;;;;;;5066919;28;19909;-71
2021/12/25 04:10:42;;;;;;;;;;;3.00;99.90;;;;;;5050671;28;19904;-71
2021/12/25 04:13:10;;;;;;;;;;;2.90;99.90;;;;;;5035436;28;19919;-71
2021/12/25 04:15:36;;;;;;;;;;;2.90;99.90;;;;;;5052356;28;20391;-72
2021/12/25 04:18:02;;;;;;;;;;;2.90;99.90;;;;;;5070520;28;20000;-71
2021/12/25 04:20:29;;;;;;;;;;;2.90;99.90;;;;;;5070392;28;20362;-72
2021/12/25 04:23:04;;;;;;;;;;;2.90;99.90;;;;;;5070635;28;19919;-71
2021/12/25 04:25:32;;;;;;;;;;;2.90;99.90;;;;;;5070364;28;19908;-72
2021/12/25 04:28:04;;;;;;;;;;;2.90;99.90;;;;;;5070356;28;19908;-71
2021/12/25 04:30:39;;;;;;;;;;;2.80;99.90;;;;;;5052363;28;19908;-72
2021/12/25 05:05:13;;;;;;;;;;;2.20;99.90;;;;;;5073126;28;19945;-72
2021/12/25 05:07:39;;;;;;;;;;;2.20;99.90;;;;;;5074634;28;20350;-73
2021/12/25 05:10:05;;;;;;;;;;;2.20;99.90;;;;;;5055448;28;19958;-72
2021/12/25 05:12:30;;;;;;;;;;;2.10;99.90;;;;;;5074486;28;20006;-73
2021/12/25 05:14:56;;;;;;;;;;;2.10;99.90;;;;;;5055360;28;20342;-73
2021/12/25 05:17:21;;;;;;;;;;;2.10;99.90;;;;;;5056076;28;20029;-72
2021/12/25 05:19:48;;;;;;;;;;;2.10;99.90;;;;;;5055143;28;19904;-72
2021/12/25 05:22:15;;;;;;;;;;;2.20;99.90;;;;;;5055943;28;19997;-72
2021/12/25 05:24:41;;;;;;;;;;;2.20;99.90;;;;;;5073390;28;19908;-72
2021/12/25 05:27:07;;;;;;;;;;;2.20;99.90;;;;;;5073663;28;19916;-73
2021/12/25 05:29:34;;;;;;;;;;;2.10;99.90;;;;;;5055264;28;20339;-72
2021/12/25 05:32:00;;;;;;;;;;;2.10;99.90;;;;;;5055732;28;19916;-72
2021/12/25 05:34:25;;;;;;;;;;;2.10;99.90;;;;;;5054926;28;19912;-71
2021/12/25 05:36:52;;;;;;;;;;;2.10;99.90;;;;;;5073593;28;19919;-71
2021/12/25 05:39:18;;;;;;;;;;;2.00;99.90;;;;;;5054616;28;19909;-71
2021/12/25 05:41:43;;;;;;;;;;;2.00;99.90;;;;;;5074098;28;19961;-73
2021/12/25 05:44:09;;;;;;;;;;;1.90;99.90;;;;;;5061516;28;20367;-72
2021/12/25 05:46:34;;;;;;;;;;;1.90;99.90;;;;;;5053481;28;19916;-71
2021/12/25 05:49:00;;;;;;;;;;;1.80;99.90;;;;;;5062603;28;20011;-71
2021/12/25 05:51:26;;;;;;;;;;;1.80;99.90;;;;;;5073344;28;19952;-71
2021/12/25 05:53:51;;;;;;;;;;;1.80;99.90;;;;;;5072811;28;19905;-72
2021/12/25 05:56:17;;;;;;;;;;;1.80;99.90;;;;;;5071875;28;20389;-72
2021/12/25 05:58:43;;;;;;;;;;;1.80;99.90;;;;;;5073128;28;19905;-72
2021/12/25 06:01:09;;;;;;;;;;;1.80;99.90;;;;;;5072641;28;19912;-71
2021/12/25 06:03:34;;;;;;;;;;;1.80;99.90;;;;;;5054494;28;19908;-71
2021/12/25 06:06:00;;;;;;;;;;;1.70;99.90;;;;;;5054726;28;19966;-72
2021/12/25 06:08:26;;;;;;;;;;;1.70;99.90;;;;;;5072431;28;20398;-72
2021/12/25 06:10:52;;;;;;;;;;;1.70;99.90;;;;;;5072638;28;19995;-72
2021/12/25 06:13:21;;;;;;;;;;;1.70;99.90;;;;;;5072688;28;20386;-72
2021/12/25 06:15:47;;;;;;;;;;;1.70;99.90;;;;;;5054977;28;19904;-71
2021/12/25 06:18:12;;;;;;;;;;;1.70;99.90;;;;;;5054271;28;19904;-72
2021/12/25 06:20:39;;;;;;;;;;;1.70;99.90;;;;;;5054001;28;19915;-73
2021/12/25 06:23:04;;;;;;;;;;;1.60;99.90;;;;;;5071805;28;19904;-72
2021/12/25 06:25:30;;;;;;;;;;;1.60;99.90;;;;;;5054352;28;19905;-72
2021/12/25 06:27:57;;;;;;;;;;;1.60;99.90;;;;;;5071947;28;19912;-72
2021/12/25 06:30:22;;;;;;;;;;;1.60;99.90;;;;;;5071931;28;19971;-72
2021/12/25 06:32:48;;;;;;;;;;;1.60;99.90;;;;;;5072718;28;20332;-73
2021/12/25 06:35:13;;;;;;;;;;;1.60;99.90;;;;;;5072173;28;20431;-72
2021/12/25 06:37:45;;;;;;;;;;;1.60;99.90;;;;;;5072627;28;19912;-73
2021/12/25 06:40:11;;;;;;;;;;;1.60;99.90;;;;;;5053308;28;19931;-71
2021/12/25 06:42:37;;;;;;;;;;;1.70;99.90;;;;;;5072497;28;19913;-72
2021/12/25 06:45:04;;;;;;;;;;;1.70;99.90;;;;;;5035093;28;19911;-71
2021/12/25 06:47:30;;;;;;;;;;;1.70;99.90;;;;;;5033936;28;19920;-72
2021/12/25 06:49:56;;;;;;;;;;;1.70;99.90;;;;;;5069108;28;19904;-71
2021/12/25 06:52:21;;;;;;;;;;;1.70;99.90;;;;;;5071951;28;19918;-70
2021/12/25 06:54:47;;;;;;;;;;;1.70;99.90;;;;;;5071580;28;20407;-71
2021/12/25 06:57:13;;;;;;;;;;;1.80;99.90;;;;;;5072027;28;20462;-72
2021/12/25 06:59:38;;;;;;;;;;;1.80;99.90;;;;;;5053212;28;19909;-73
2021/12/25 07:02:04;;;;;;;;;;;1.80;99.90;;;;;;5053909;28;20320;-73
2021/12/25 07:04:30;;;;;;;;;;;1.80;99.90;;;;;;5053368;28;19948;-72
2021/12/25 07:06:55;;;;;;;;;;;1.70;99.90;;;;;;5071668;28;19916;-73
2021/12/25 07:09:21;;;;;;;;;;;1.60;99.90;;;;;;5070870;28;20770;-73
2021/12/25 07:11:46;;;;;;;;;;;1.50;99.90;;;;;;5071684;28;19912;-72
2021/12/25 07:14:12;;;;;;;;;;;1.40;99.90;;;;;;5053048;28;19916;-72
2021/12/25 07:16:38;;;;;;;;;;;1.40;99.90;;;;;;5071520;28;20193;-72
2021/12/25 07:19:04;;;;;;;;;;;1.30;99.90;;;;;;5070488;28;19986;-71
2021/12/25 07:21:30;;;;;;;;;;;1.30;99.90;;;;;;5071676;28;20298;-72
2021/12/25 07:23:55;;;;;;;;;;;1.30;99.90;;;;;;5071055;28;19992;-73
2021/12/25 07:26:21;;;;;;;;;;;1.30;99.90;;;;;;5053524;28;20010;-73
2021/12/25 07:28:47;;;;;;;;;;;1.30;99.90;;;;;;5044556;28;19913;-73
2021/12/25 07:31:13;;;;;;;;;;;1.30;99.90;;;;;;5050894;28;20356;-72
2021/12/25 07:33:40;;;;;;;;;;;1.30;99.90;;;;;;5040165;28;19904;-71
2021/12/25 07:36:06;;;;;;;;;;;1.50;99.90;;;;;;5071314;28;19912;-72
2021/12/25 07:38:32;;;;;;;;;;;2.00;99.90;;;;;;5064656;28;19935;-73
2021/12/25 07:40:58;;;;;;;;;;;2.00;99.90;;;;;;5050868;28;19928;-71
2021/12/25 07:43:23;;;;;;;;;;;2.10;99.90;;;;;;5037676;28;19932;-72
2021/12/25 07:45:51;;;;;;;;;;;2.00;99.90;;;;;;5052869;28;19975;-72
2021/12/25 07:48:19;;;;;;;;;;;1.90;99.90;;;;;;5066539;28;19987;-73
2021/12/25 07:50:45;;;;;;;;;;;1.80;99.90;;;;;;5051134;28;19905;-71
2021/12/25 07:53:11;;;;;;;;;;;2.00;99.90;;;;;;5052292;28;19908;-73
2021/12/25 07:55:37;;;;;;;;;;;2.20;99.90;;;;;;5071133;28;19904;-73
2021/12/25 07:58:03;;;;;;;;;;;2.00;99.90;;;;;;5070285;28;19904;-72
2021/12/25 08:00:29;;;;;;;;;;;2.00;99.90;;;;;;5070524;28;20356;-72
2021/12/25 08:02:54;;;;;;;;;;;1.90;99.90;;;;;;5052468;28;19912;-72
2021/12/25 08:05:20;;;;;;;;;;;1.90;99.90;;;;;;5070501;28;20275;-73
2021/12/25 08:07:46;;;;;;;;;;;1.80;99.90;;;;;;5053026;28;19920;-73
2021/12/25 08:10:13;;;;;;;;;;;1.80;99.90;;;;;;5052339;28;19904;-72
2021/12/25 08:12:57;;;;;;;;;;;1.80;99.90;;;;;;5071030;28;19916;-72
2021/12/25 08:15:24;;;;;;;;;;;1.80;99.90;;;;;;5070694;28;19912;-73
2021/12/25 08:17:50;;;;;;;;;;;1.80;99.90;;;;;;5052632;28;19917;-72
2021/12/25 08:20:17;;;;;;;;;;;1.80;99.90;;;;;;5055124;28;19960;-72
2021/12/25 08:22:42;;;;;;;;;;;1.80;99.90;;;;;;5057073;28;20244;-73
2021/12/25 08:25:09;;;;;;;;;;;1.80;99.90;;;;;;5054803;28;20004;-72
2021/12/25 08:27:35;;;;;;;;;;;1.80;99.90;;;;;;5036788;28;19932;-72
2021/12/25 08:30:01;;;;;;;;;;;1.70;99.90;;;;;;5072796;28;19912;-72
2021/12/25 08:32:27;;;;;;;;;;;1.80;99.90;;;;;;5057122;28;19912;-73
2021/12/25 08:34:52;;;;;;;;;;;1.70;99.90;;;;;;5074478;28;20253;-72
2021/12/25 08:37:23;;;;;;;;;;;1.80;99.90;;;;;;5075241;28;19919;-71
2021/12/25 08:39:53;;;;;;;;;;;1.80;99.90;;;;;;5074013;28;19939;-73
2021/12/25 08:42:19;;;;;;;;;;;1.80;99.90;;;;;;5074945;28;19916;-73
2021/12/25 08:47:26;;;;;;;;;;;1.90;99.90;;;;;;5054400;28;19924;-72
2021/12/25 08:49:52;;;;;;;;;;;1.90;99.90;;;;;;5036289;28;19909;-72
2021/12/25 08:52:18;;;;;;;;;;;1.80;99.90;;;;;;5074465;28;19923;-72
2021/12/25 08:54:44;;;;;;;;;;;1.80;99.90;;;;;;5073946;28;19915;-73
2021/12/25 08:57:10;;;;;;;;;;;1.80;99.90;;;;;;5074031;28;20253;-73
2021/12/25 08:59:36;;;;;;;;;;;1.90;99.90;;;;;;5040282;28;20361;-73
2021/12/25 09:02:04;;;;;;;;;;;1.80;99.90;;;;;;5054232;28;19957;-73
2021/12/25 09:04:30;;;;;;;;;;;1.80;99.90;;;;;;5067503;28;19915;-72
2021/12/25 09:06:56;;;;;;;;;;;1.60;99.90;;;;;;5074167;28;19936;-71
2021/12/25 09:09:21;;;;;;;;;;;1.50;99.90;;;;;;5055016;28;19912;-73
2021/12/25 09:11:47;;;;;;;;;;;1.40;99.90;;;;;;5074046;28;20087;-72
2021/12/25 09:14:13;;;;;;;;;;;1.40;99.90;;;;;;5043825;28;19911;-72
2021/12/25 09:16:38;;;;;;;;;;;1.40;99.90;;;;;;5053855;28;19913;-72
2021/12/25 09:19:04;;;;;;;;;;;1.40;99.90;;;;;;5053134;28;20387;-72
2021/12/25 09:21:30;;;;;;;;;;;1.30;99.90;;;;;;5035576;28;20000;-74
2021/12/25 09:23:55;;;;;;;;;;;1.40;99.90;;;;;;5062653;28;19938;-73
2021/12/25 09:26:21;;;;;;;;;;;1.40;99.90;;;;;;5073919;28;19935;-72
2021/12/25 09:28:47;;;;;;;;;;;1.50;99.90;;;;;;5055233;28;20053;-73
2021/12/25 09:31:12;;;;;;;;;;;1.60;99.90;;;;;;5072927;28;20202;-72
2021/12/25 09:33:38;;;;;;;;;;;1.60;99.90;;;;;;5073525;28;19927;-73
2021/12/25 09:36:04;;;;;;;;;;;1.60;99.90;;;;;;5054936;28;19962;-73
2021/12/25 09:38:31;;;;;;;;;;;1.50;99.90;;;;;;5073331;28;19915;-72
2021/12/25 09:40:57;;;;;;;;;;;1.50;99.90;;;;;;5072544;28;19974;-71
2021/12/25 09:43:23;;;;;;;;;;;1.50;99.90;;;;;;5072947;28;20310;-73
2021/12/25 09:45:49;;;;;;;;;;;1.50;99.90;;;;;;5054885;28;19954;-72
2021/12/25 09:48:14;;;;;;;;;;;1.40;99.90;;;;;;5073010;28;19912;-73
2021/12/25 09:50:40;;;;;;;;;;;1.50;99.90;;;;;;5072762;28;19908;-73
2021/12/25 09:53:06;;;;;;;;;;;1.60;99.90;;;;;;5054774;28;19904;-73
2021/12/25 09:55:32;;;;;;;;;;;1.60;99.90;;;;;;5072575;28;19998;-71
2021/12/25 09:57:58;;;;;;;;;;;1.60;99.90;;;;;;5072846;28;20046;-73
2021/12/25 10:00:24;;;;;;;;;;;1.60;99.90;;;;;;5072526;28;19912;-72
2021/12/25 10:02:54;;;;;;;;;;;1.70;99.90;;;;;;5073089;28;19916;-71
2021/12/25 10:05:34;;;;;;;;;;;1.70;99.90;;;;;;5072717;28;19904;-72
2021/12/25 10:08:04;;;;;;;;;;;1.70;99.90;;;;;;5072455;28;19927;-72
2021/12/25 10:10:36;;;;;;;;;;;1.80;99.90;;;;;;5072046;28;20651;-72
2021/12/25 10:13:02;;;;;;;;;;;1.80;99.90;;;;;;5070420;28;19954;-72
2021/12/25 10:15:28;;;;;;;;;;;1.80;99.90;;;;;;5052546;28;20002;-73
2021/12/25 10:17:55;;;;;;;;;;;1.80;99.90;;;;;;5053658;28;19936;-72
2021/12/25 10:20:22;;;;;;;;;;;1.70;99.90;;;;;;5054122;28;20406;-73
2021/12/25 10:22:51;;;;;;;;;;;1.50;99.90;;;;;;5054517;28;20512;-73
2021/12/25 10:25:16;;;;;;;;;;;1.40;99.90;;;;;;5050758;28;19909;-73
2021/12/25 10:27:50;;;;;;;;;;;1.20;99.90;;;;;;5052695;28;19917;-73
2021/12/25 10:30:16;;;;;;;;;;;1.20;99.90;;;;;;5033776;28;19909;-74
2021/12/25 10:32:42;;;;;;;;;;;1.00;99.90;;;;;;5052518;28;20362;-72
2021/12/25 10:35:12;;;;;;;;;;;1.10;99.90;;;;;;5053018;28;19909;-73
2021/12/25 10:37:39;;;;;;;;;;;1.20;99.90;;;;;;5072028;28;20311;-72
2021/12/25 10:40:16;;;;;;;;;;;1.50;99.90;;;;;;5070044;28;19916;-73
2021/12/25 10:42:44;;;;;;;;;;;1.80;99.90;;;;;;5071733;28;19946;-73
2021/12/25 10:45:12;;;;;;;;;;;2.30;99.90;;;;;;5053416;28;19912;-74
2021/12/25 10:47:38;;;;;;;;;;;2.70;99.90;;;;;;5072039;28;20283;-73
2021/12/25 10:50:11;;;;;;;;;;;3.00;99.90;;;;;;5053458;28;19904;-72
2021/12/25 10:52:41;;;;;;;;;;;3.10;99.90;;;;;;5053755;28;19919;-73
2021/12/25 10:55:10;;;;;;;;;;;3.00;99.90;;;;;;5053824;28;19905;-72
2021/12/25 10:57:38;;;;;;;;;;;3.20;99.90;;;;;;5072357;28;19920;-71
2021/12/25 11:00:12;;;;;;;;;;;3.40;99.90;;;;;;5071183;28;19930;-73
2021/12/25 11:02:39;;;;;;;;;;;3.20;99.90;;;;;;5053816;28;19955;-72
2021/12/25 11:05:23;;;;;;;;;;;2.70;99.90;;;;;;5053762;28;19904;-72
2021/12/25 11:08:07;;;;;;;;;;;2.20;99.90;;;;;;5071615;28;19916;-74
2021/12/25 11:10:53;;;;;;;;;;;1.90;99.90;;;;;;5051394;28;19911;-73
2021/12/25 11:13:21;;;;;;;;;;;1.80;99.90;;;;;;5037015;28;20199;-72
2021/12/25 11:15:46;;;;;;;;;;;1.70;99.90;;;;;;5071405;28;19904;-72
2021/12/25 11:18:14;;;;;;;;;;;1.60;99.90;;;;;;5053630;28;19995;-73
2021/12/25 11:20:40;;;;;;;;;;;1.50;99.90;;;;;;5053141;28;19908;-73
2021/12/25 11:23:08;;;;;;;;;;;1.40;99.90;;;;;;5070731;28;20275;-71
2021/12/25 11:25:34;;;;;;;;;;;1.60;99.90;;;;;;5053153;28;20303;-71
2021/12/25 11:28:01;;;;;;;;;;;1.60;99.90;;;;;;5070712;28;19924;-71
2021/12/25 11:30:28;;;;;;;;;;;1.60;99.90;;;;;;5052979;28;19905;-72
2021/12/25 11:32:54;;;;;;;;;;;1.50;99.90;;;;;;5070615;28;19912;-73
2021/12/25 11:35:20;;;;;;;;;;;1.40;99.90;;;;;;5052860;28;19987;-73
2021/12/25 11:37:48;;;;;;;;;;;1.40;99.90;;;;;;5071153;28;19920;-72
2021/12/25 11:40:14;;;;;;;;;;;2.20;99.90;;;;;;5070312;28;20355;-72
2021/12/25 11:42:45;;;;;;;;;;;2.90;99.90;;;;;;5053162;28;19920;-72
2021/12/25 11:45:19;;;;;;;;;;;3.70;99.90;;;;;;5070573;28;20393;-73
2021/12/25 11:47:45;;;;;;;;;;;3.70;99.90;;;;;;5071356;28;19912;-73
2021/12/25 11:50:34;;;;;;;;;;;3.30;99.90;;;;;;5070411;28;19995;-73
2021/12/25 11:53:07;;;;;;;;;;;2.80;99.90;;;;;;5060465;28;19923;-73
2021/12/25 11:58:19;;;;;;;;;;;3.00;99.90;;;;;;5053425;28;19952;-73
2021/12/25 12:00:49;;;;;;;;;;;2.90;99.90;;;;;;5052624;28;19911;-73
2021/12/25 12:03:33;;;;;;;;;;;3.20;99.90;;;;;;5070495;28;19912;-72
2021/12/25 12:05:59;;;;;;;;;;;3.20;99.90;;;;;;5070944;28;19912;-73
2021/12/25 12:08:24;;;;;;;;;;;2.80;99.90;;;;;;5065566;28;19920;-73
2021/12/25 12:10:51;;;;;;;;;;;2.90;99.90;;;;;;5032578;28;20022;-73
2021/12/25 12:13:21;;;;;;;;;;;2.60;99.90;;;;;;5054248;28;19947;-72
2021/12/25 12:15:48;;;;;;;;;;;2.30;99.90;;;;;;5052353;28;19926;-72
2021/12/25 12:18:23;;;;;;;;;;;1.90;99.90;;;;;;5052621;28;19919;-72
2021/12/25 12:20:49;;;;;;;;;;;1.60;99.90;;;;;;5070519;28;19958;-72
2021/12/25 12:23:38;;;;;;;;;;;1.30;99.90;;;;;;5048538;28;19916;-73
2021/12/25 12:26:08;;;;;;;;;;;1.00;99.90;;;;;;5050661;28;19959;-74
2021/12/25 12:28:54;;;;;;;;;;;0.90;99.90;;;;;;5056879;28;20038;-73
2021/12/25 12:31:49;;;;;;;;;;;0.70;99.90;;;;;;5070955;28;19912;-73
2021/12/25 12:34:30;;;;;;;;;;;0.10;99.90;;;;;;5033030;28;20360;-73
2021/12/25 12:37:13;;;;;;;;;;;0.50;99.90;;;;;;5052740;28;20283;-72
2021/12/25 12:40:03;;;;;;;;;;;0.40;99.90;;;;;;5070143;28;19919;-73
2021/12/25 12:42:47;;;;;;;;;;;0.50;99.90;;;;;;5043820;28;19924;-73
2021/12/25 12:45:15;;;;;;;;;;;0.50;99.90;;;;;;5050558;28;19909;-73
2021/12/25 12:47:41;;;;;;;;;;;0.50;99.90;;;;;;5050804;28;20036;-73
2021/12/25 12:50:07;;;;;;;;;;;0.40;99.90;;;;;;5068957;28;19908;-74
2021/12/25 12:52:40;;;;;;;;;;;0.40;99.90;;;;;;5052073;28;19913;-73
2021/12/25 12:55:05;;;;;;;;;;;0.40;99.90;;;;;;5051026;28;19905;-73
2021/12/25 12:57:36;;;;;;;;;;;0.30;99.90;;;;;;5050328;28;19920;-72
2021/12/25 13:00:09;;;;;;;;;;;0.30;99.90;;;;;;5050078;28;19949;-73
2021/12/25 13:02:41;;;;;;;;;;;0.20;99.90;;;;;;5070874;28;20340;-74
2021/12/25 13:05:08;;;;;;;;;;;0.10;99.90;;;;;;5070313;28;19908;-73
2021/12/25 13:07:35;;;;;;;;;;;0.00;99.90;;;;;;5074182;28;19920;-73
2021/12/25 13:10:04;;;;;;;;;;;-0.10;99.90;;;;;;5055637;28;20333;-73
2021/12/25 13:12:44;;;;;;;;;;;-0.10;99.90;;;;;;5036231;28;19916;-73
2021/12/25 13:15:14;;;;;;;;;;;-0.20;99.90;;;;;;5072875;28;19908;-73
2021/12/25 13:17:50;;;;;;;;;;;-0.20;99.90;;;;;;5055920;28;20002;-72
2021/12/25 13:20:16;;;;;;;;;;;-0.20;99.90;;;;;;5073477;28;19916;-72
2021/12/25 13:22:41;;;;;;;;;;;-0.20;99.90;;;;;;5073879;28;19912;-73
2021/12/25 13:25:09;;;;;;;;;;;-0.30;99.90;;;;;;5072814;28;20289;-72
2021/12/25 13:27:35;;;;;;;;;;;-0.30;99.90;;;;;;5055334;28;19916;-73
2021/12/25 13:30:04;;;;;;;;;;;-0.30;99.90;;;;;;5054246;28;19958;-73
2021/12/25 13:32:30;;;;;;;;;;;-0.30;99.90;;;;;;5053861;28;20360;-74
2021/12/25 13:34:55;;;;;;;;;;;-0.40;99.90;;;;;;5070267;28;19904;-73
2021/12/25 13:37:21;;;;;;;;;;;-0.40;99.90;;;;;;5073914;28;19919;-72
2021/12/25 13:39:47;;;;;;;;;;;-0.40;99.90;;;;;;5072467;28;19915;-73
2021/12/25 13:42:14;;;;;;;;;;;-0.40;99.90;;;;;;5073251;28;19943;-72
2021/12/25 13:44:40;;;;;;;;;;;-0.50;99.90;;;;;;5038949;28;20000;-73
2021/12/25 13:47:15;;;;;;;;;;;-0.50;99.90;;;;;;5035065;28;19995;-73
2021/12/25 13:49:43;;;;;;;;;;;-0.50;99.90;;;;;;5050130;28;20368;-73
2021/12/25 13:52:21;;;;;;;;;;;-0.60;99.90;;;;;;5073712;28;20152;-73
2021/12/25 13:54:49;;;;;;;;;;;-0.60;99.90;;;;;;5072320;28;20480;-73
2021/12/25 13:57:18;;;;;;;;;;;-0.70;99.90;;;;;;5073406;28;19916;-73
2021/12/25 13:59:49;;;;;;;;;;;-0.70;99.90;;;;;;5056524;28;19911;-73
2021/12/25 14:02:15;;;;;;;;;;;-0.80;99.90;;;;;;5053415;28;19916;-73
2021/12/25 14:04:43;;;;;;;;;;;-0.80;99.90;;;;;;5067854;28;19909;-73
2021/12/25 14:07:09;;;;;;;;;;;-0.80;99.90;;;;;;5055126;28;19916;-72
2021/12/25 14:09:35;;;;;;;;;;;-0.80;99.90;;;;;;5071794;28;19915;-73
2021/12/25 14:12:01;;;;;;;;;;;-0.80;99.90;;;;;;5073368;28;20370;-73
2021/12/25 14:14:28;;;;;;;;;;;-0.90;99.90;;;;;;5072305;28;20268;-73
2021/12/25 14:16:54;;;;;;;;;;;-0.90;99.90;;;;;;5053698;28;20374;-72
2021/12/25 14:19:24;;;;;;;;;;;-0.90;99.90;;;;;;5053765;28;19939;-72
2021/12/25 14:21:54;;;;;;;;;;;-1.00;99.90;;;;;;5072402;28;20046;-73
2021/12/25 14:24:19;;;;;;;;;;;-1.00;99.90;;;;;;5053971;28;19944;-73
2021/12/25 14:26:45;;;;;;;;;;;-1.00;99.90;;;;;;5072791;28;20030;-72
2021/12/25 14:29:25;;;;;;;;;;;-1.10;99.90;;;;;;5071108;28;20069;-73
2021/12/25 14:31:51;;;;;;;;;;;-1.10;99.90;;;;;;5054470;28;19981;-72
2021/12/25 14:34:17;;;;;;;;;;;-1.10;99.90;;;;;;5071908;28;20317;-73
2021/12/25 14:36:44;;;;;;;;;;;-1.00;99.90;;;;;;5054337;28;19916;-73
2021/12/25 14:39:13;;;;;;;;;;;-1.10;99.90;;;;;;5069089;28;19906;-73
2021/12/25 14:41:39;;;;;;;;;;;-1.20;99.90;;;;;;5072158;28;19928;-73
2021/12/25 14:44:17;;;;;;;;;;;-1.20;99.90;;;;;;5042965;28;19928;-73
2021/12/25 14:46:43;;;;;;;;;;;-1.20;99.90;;;;;;5034241;28;19912;-72
2021/12/25 14:49:08;;;;;;;;;;;-1.20;99.90;;;;;;5044132;28;19919;-73
2021/12/25 14:51:38;;;;;;;;;;;-1.20;99.90;;;;;;5053896;28;19921;-73
2021/12/25 14:54:05;;;;;;;;;;;-1.30;99.90;;;;;;5053517;28;19915;-73
2021/12/25 14:56:36;;;;;;;;;;;-1.30;99.90;;;;;;5072027;28;20027;-73
2021/12/25 14:59:03;;;;;;;;;;;-1.30;99.90;;;;;;5053100;28;19977;-73
2021/12/25 15:01:30;;;;;;;;;;;-1.40;99.90;;;;;;5072116;28;20352;-73
2021/12/25 15:04:13;;;;;;;;;;;-1.40;99.90;;;;;;5053594;28;19904;-73
2021/12/25 15:06:42;;;;;;;;;;;-1.40;99.90;;;;;;5071593;28;20343;-73
2021/12/25 15:09:10;;;;;;;;;;;-1.40;99.90;;;;;;5052992;28;19968;-73
2021/12/25 15:11:37;;;;;;;;;;;-1.40;99.90;;;;;;5053757;28;19974;-72
2021/12/25 15:14:06;;;;;;;;;;;-1.40;99.90;;;;;;5071293;28;20012;-73
2021/12/25 15:16:44;;;;;;;;;;;-1.50;99.90;;;;;;5071922;28;20423;-72
2021/12/25 15:19:20;;;;;;;;;;;-1.50;99.90;;;;;;5052887;28;20328;-72
2021/12/25 15:21:46;;;;;;;;;;;-1.50;99.90;;;;;;5072038;28;20350;-73
2021/12/25 15:24:16;;;;;;;;;;;-1.50;99.90;;;;;;5071037;28;19911;-73
2021/12/25 15:26:43;;;;;;;;;;;-1.50;99.90;;;;;;5053064;28;19912;-73
2021/12/25 15:29:09;;;;;;;;;;;-1.50;99.90;;;;;;5052313;28;19959;-72
2021/12/25 15:31:35;;;;;;;;;;;-1.60;99.90;;;;;;5071286;28;19971;-72
2021/12/25 15:34:05;;;;;;;;;;;-1.60;99.90;;;;;;5070783;28;20392;-74
2021/12/25 15:36:33;;;;;;;;;;;-1.60;99.90;;;;;;5070785;28;19916;-72
2021/12/25 15:39:08;;;;;;;;;;;-1.70;99.90;;;;;;5070524;28;20415;-73
2021/12/25 15:41:33;;;;;;;;;;;-1.70;99.90;;;;;;5053272;28;20033;-72
2021/12/25 15:43:59;;;;;;;;;;;-1.70;99.90;;;;;;5070565;28;20007;-73
2021/12/25 15:46:24;;;;;;;;;;;-1.70;99.90;;;;;;5070941;28;19908;-73
2021/12/25 15:48:50;;;;;;;;;;;-1.70;99.90;;;;;;5070726;28;19916;-73
2021/12/25 15:51:15;;;;;;;;;;;-2.20;99.90;;;;;;5052723;28;19943;-74
2021/12/25 15:53:41;;;;;;;;;;;-1.70;99.90;;;;;;5053246;28;19951;-72
2021/12/25 15:56:07;;;;;;;;;;;-1.80;99.90;;;;;;5052420;28;19983;-72
2021/12/25 15:58:33;;;;;;;;;;;-1.80;99.90;;;;;;5071046;28;20011;-72
2021/12/25 16:00:59;;;;;;;;;;;-1.80;99.90;;;;;;5070679;28;19961;-74